createdAt,value
2023-05-12T00:00:45.730Z,507.00
2023-05-12T00:01:45.749Z,507.00
2023-05-12T00:02:45.839Z,507.00
2023-05-12T00:03:45.951Z,508.00
2023-05-12T00:04:45.834Z,505.00
2023-05-12T00:05:45.757Z,509.00
2023-05-12T00:06:45.733Z,507.00
2023-05-12T00:07:45.733Z,508.00
2023-05-12T00:08:45.750Z,507.00
2023-05-12T00:09:45.742Z,514.00
2023-05-12T00:10:45.746Z,513.00
2023-05-12T00:11:45.740Z,511.00
2023-05-12T00:12:45.734Z,507.00
2023-05-12T00:13:45.810Z,507.00
2023-05-12T00:14:45.840Z,507.00
2023-05-12T00:15:45.898Z,510.00
2023-05-12T00:16:45.936Z,510.00
2023-05-12T00:17:46.020Z,505.00
2023-05-12T00:18:46.059Z,507.00
2023-05-12T00:19:46.069Z,511.00
2023-05-12T00:20:46.143Z,507.00
2023-05-12T00:21:46.175Z,507.00
2023-05-12T00:22:46.214Z,506.00
2023-05-12T00:23:46.269Z,503.00
2023-05-12T00:24:46.320Z,502.00
2023-05-12T00:25:46.386Z,509.00
2023-05-12T00:26:46.419Z,507.00
2023-05-12T00:27:46.482Z,506.00
2023-05-12T00:28:46.517Z,502.00
2023-05-12T00:29:46.599Z,501.00
2023-05-12T00:30:46.624Z,505.00
2023-05-12T00:31:46.838Z,503.00
2023-05-12T00:32:46.798Z,502.00
2023-05-12T00:33:46.794Z,508.00
2023-05-12T00:34:46.854Z,507.00
2023-05-12T00:35:46.894Z,504.00
2023-05-12T00:36:46.945Z,507.00
2023-05-12T00:37:47.004Z,504.00
2023-05-12T00:38:46.997Z,505.00
2023-05-12T00:39:47.006Z,506.00
2023-05-12T00:40:47.023Z,507.00
2023-05-12T00:41:47.005Z,506.00
2023-05-12T00:42:46.995Z,509.00
2023-05-12T00:43:47.004Z,508.00
2023-05-12T00:44:47.024Z,500.00
2023-05-12T00:45:47.062Z,501.00
2023-05-12T00:46:47.031Z,508.00
2023-05-12T00:47:47.088Z,509.00
2023-05-12T00:48:47.052Z,504.00
2023-05-12T00:49:47.090Z,507.00
2023-05-12T00:50:47.149Z,510.00
2023-05-12T00:51:47.223Z,503.00
2023-05-12T00:52:47.255Z,507.00
2023-05-12T00:53:49.677Z,509.00
2023-05-12T00:54:47.313Z,510.00
2023-05-12T00:55:47.312Z,508.00
2023-05-12T00:56:47.308Z,511.00
2023-05-12T00:57:47.343Z,505.00
2023-05-12T00:58:47.359Z,507.00
2023-05-12T00:59:47.320Z,509.00
2023-05-12T01:00:47.404Z,502.00
2023-05-12T01:01:47.333Z,504.00
2023-05-12T01:02:47.523Z,507.00
2023-05-12T01:03:47.372Z,507.00
2023-05-12T01:04:47.353Z,506.00
2023-05-12T01:05:47.361Z,503.00
2023-05-12T01:06:47.355Z,505.00
2023-05-12T01:07:47.357Z,513.00
2023-05-12T01:08:47.365Z,503.00
2023-05-12T01:09:47.371Z,500.00
2023-05-12T01:10:47.392Z,505.00
2023-05-12T01:11:47.411Z,503.00
2023-05-12T01:12:47.411Z,503.00
2023-05-12T01:13:47.400Z,503.00
2023-05-12T01:14:47.400Z,512.00
2023-05-12T01:15:47.426Z,503.00
2023-05-12T01:16:47.475Z,506.00
2023-05-12T01:17:47.492Z,512.00
2023-05-12T01:18:47.467Z,505.00
2023-05-12T01:19:47.482Z,514.00
2023-05-12T01:20:47.470Z,509.00
2023-05-12T01:21:47.484Z,507.00
2023-05-12T01:22:47.494Z,501.00
2023-05-12T01:23:47.501Z,504.00
2023-05-12T01:24:47.502Z,511.00
2023-05-12T01:25:47.517Z,511.00
2023-05-12T01:26:47.509Z,511.00
2023-05-12T01:27:47.507Z,517.00
2023-05-12T01:28:47.525Z,503.00
2023-05-12T01:29:47.527Z,503.00
2023-05-12T01:30:47.591Z,503.00
2023-05-12T01:31:47.666Z,505.00
2023-05-12T01:32:47.583Z,506.00
2023-05-12T01:33:47.593Z,503.00
2023-05-12T01:34:47.570Z,504.00
2023-05-12T01:35:47.585Z,506.00
2023-05-12T01:36:47.575Z,508.00
2023-05-12T01:37:47.589Z,508.00
2023-05-12T01:38:47.622Z,512.00
2023-05-12T01:39:47.613Z,509.00
2023-05-12T01:40:47.648Z,510.00
2023-05-12T01:41:47.630Z,509.00
2023-05-12T01:42:47.633Z,509.00
2023-05-12T01:43:47.674Z,507.00
2023-05-12T01:44:47.725Z,510.00
2023-05-12T01:45:47.777Z,506.00
2023-05-12T01:46:47.847Z,510.00
2023-05-12T01:47:47.914Z,515.00
2023-05-12T01:48:47.938Z,509.00
2023-05-12T01:49:48.018Z,506.00
2023-05-12T01:50:48.093Z,508.00
2023-05-12T01:51:48.131Z,506.00
2023-05-12T01:52:48.198Z,508.00
2023-05-12T01:53:48.267Z,512.00
2023-05-12T01:54:48.315Z,506.00
2023-05-12T01:55:48.388Z,509.00
2023-05-12T01:56:48.449Z,504.00
2023-05-12T01:57:48.505Z,512.00
2023-05-12T01:58:48.634Z,506.00
2023-05-12T01:59:48.623Z,508.00
2023-05-12T02:00:48.689Z,506.00
2023-05-12T02:01:48.835Z,505.00
2023-05-12T02:02:48.835Z,512.00
2023-05-12T02:03:48.928Z,505.00
2023-05-12T02:04:48.960Z,504.00
2023-05-12T02:05:48.993Z,511.00
2023-05-12T02:06:49.110Z,507.00
2023-05-12T02:07:49.154Z,509.00
2023-05-12T02:08:49.154Z,507.00
2023-05-12T02:09:49.230Z,506.00
2023-05-12T02:10:49.274Z,511.00
2023-05-12T02:11:49.337Z,506.00
2023-05-12T02:12:49.392Z,507.00
2023-05-12T02:13:49.455Z,512.00
2023-05-12T02:14:49.511Z,507.00
2023-05-12T02:15:49.583Z,502.00
2023-05-12T02:16:49.657Z,510.00
2023-05-12T02:17:49.734Z,512.00
2023-05-12T02:18:49.768Z,516.00
2023-05-12T02:19:49.797Z,502.00
2023-05-12T02:20:49.843Z,505.00
2023-05-12T02:21:49.915Z,507.00
2023-05-12T02:22:49.962Z,506.00
2023-05-12T02:23:50.041Z,513.00
2023-05-12T02:24:50.081Z,514.00
2023-05-12T02:25:50.146Z,508.00
2023-05-12T02:26:50.222Z,508.00
2023-05-12T02:27:50.282Z,508.00
2023-05-12T02:28:50.328Z,509.00
2023-05-12T02:29:50.381Z,512.00
2023-05-12T02:30:50.441Z,507.00
2023-05-12T02:31:50.538Z,511.00
2023-05-12T02:32:50.616Z,517.00
2023-05-12T02:33:50.653Z,517.00
2023-05-12T02:34:50.698Z,504.00
2023-05-12T02:35:50.769Z,501.00
2023-05-12T02:36:50.824Z,508.00
2023-05-12T02:37:50.900Z,513.00
2023-05-12T02:38:50.946Z,509.00
2023-05-12T02:39:50.990Z,514.00
2023-05-12T02:40:51.061Z,500.00
2023-05-12T02:41:51.115Z,516.00
2023-05-12T02:42:51.175Z,516.00
2023-05-12T02:43:51.233Z,512.00
2023-05-12T02:44:51.301Z,505.00
2023-05-12T02:45:51.378Z,509.00
2023-05-12T02:46:51.434Z,503.00
2023-05-12T02:47:51.493Z,500.00
2023-05-12T02:48:51.536Z,500.00
2023-05-12T02:49:51.589Z,500.00
2023-05-12T02:50:51.647Z,500.00
2023-05-12T02:51:51.710Z,501.00
2023-05-12T02:52:51.738Z,506.00
2023-05-12T02:53:51.777Z,500.00
2023-05-12T02:54:51.839Z,503.00
2023-05-12T02:55:51.895Z,500.00
2023-05-12T02:56:52.007Z,504.00
2023-05-12T02:57:52.033Z,501.00
2023-05-12T02:58:52.093Z,504.00
2023-05-12T02:59:52.183Z,500.00
2023-05-12T03:01:03.018Z,500.00
2023-05-12T03:01:53.289Z,496.00
2023-05-12T03:02:52.315Z,491.00
2023-05-12T03:03:52.358Z,483.00
2023-05-12T03:04:52.256Z,453.00
2023-05-12T03:05:52.289Z,462.00
2023-05-12T03:06:52.278Z,485.00
2023-05-12T03:07:52.277Z,507.00
2023-05-12T03:08:52.297Z,510.00
2023-05-12T03:09:52.321Z,507.00
2023-05-12T03:10:52.348Z,497.00
2023-05-12T03:11:52.348Z,508.00
2023-05-12T03:12:52.357Z,514.00
2023-05-12T03:13:52.381Z,516.00
2023-05-12T03:14:52.395Z,497.00
2023-05-12T03:15:52.403Z,513.00
2023-05-12T03:16:52.438Z,503.00
2023-05-12T03:17:52.459Z,502.00
2023-05-12T03:18:52.489Z,507.00
2023-05-12T03:19:52.478Z,505.00
2023-05-12T03:20:52.485Z,510.00
2023-05-12T03:21:52.524Z,506.00
2023-05-12T03:22:52.548Z,498.00
2023-05-12T03:23:52.581Z,513.00
2023-05-12T03:24:52.624Z,511.00
2023-05-12T03:25:52.653Z,501.00
2023-05-12T03:26:52.704Z,500.00
2023-05-12T03:27:52.725Z,510.00
2023-05-12T03:28:52.773Z,503.00
2023-05-12T03:29:52.798Z,509.00
2023-05-12T03:30:52.864Z,506.00
2023-05-12T03:31:52.976Z,502.00
2023-05-12T03:32:52.964Z,503.00
2023-05-12T03:33:52.980Z,501.00
2023-05-12T03:34:53.018Z,506.00
2023-05-12T03:35:53.066Z,508.00
2023-05-12T03:36:53.130Z,502.00
2023-05-12T03:37:53.170Z,504.00
2023-05-12T03:38:53.316Z,503.00
2023-05-12T03:39:53.256Z,500.00
2023-05-12T03:40:53.316Z,503.00
2023-05-12T03:41:53.338Z,503.00
2023-05-12T03:42:53.348Z,499.00
2023-05-12T03:43:53.357Z,494.00
2023-05-12T03:44:53.385Z,487.00
2023-05-12T03:45:53.437Z,489.00
2023-05-12T03:46:53.574Z,503.00
2023-05-12T03:47:53.505Z,504.00
2023-05-12T03:48:53.484Z,504.00
2023-05-12T03:49:53.454Z,502.00
2023-05-12T03:50:53.469Z,499.00
2023-05-12T03:51:53.492Z,497.00
2023-05-12T03:52:53.523Z,501.00
2023-05-12T03:53:53.521Z,503.00
2023-05-12T03:54:53.550Z,506.00
2023-05-12T03:55:53.567Z,504.00
2023-05-12T03:56:53.607Z,502.00
2023-05-12T03:57:53.622Z,504.00
2023-05-12T03:58:53.633Z,506.00
2023-05-12T03:59:53.653Z,507.00
2023-05-12T04:00:53.674Z,506.00
2023-05-12T04:01:53.739Z,506.00
2023-05-12T04:02:53.845Z,505.00
2023-05-12T04:03:53.923Z,507.00
2023-05-12T04:04:53.898Z,504.00
2023-05-12T04:05:53.944Z,506.00
2023-05-12T04:06:54.018Z,510.00
2023-05-12T04:07:54.044Z,510.00
2023-05-12T04:08:54.069Z,509.00
2023-05-12T04:09:54.075Z,505.00
2023-05-12T04:10:54.104Z,504.00
2023-05-12T04:11:54.115Z,497.00
2023-05-12T04:12:54.146Z,502.00
2023-05-12T04:13:54.174Z,500.00
2023-05-12T04:14:54.174Z,502.00
2023-05-12T04:15:54.201Z,506.00
2023-05-12T04:16:54.279Z,504.00
2023-05-12T04:17:54.266Z,502.00
2023-05-12T04:18:54.308Z,502.00
2023-05-12T04:19:54.294Z,506.00
2023-05-12T04:20:54.395Z,500.00
2023-05-12T04:21:54.450Z,504.00
2023-05-12T04:22:54.527Z,505.00
2023-05-12T04:23:54.590Z,501.00
2023-05-12T04:24:54.668Z,507.00
2023-05-12T04:25:54.746Z,504.00
2023-05-12T04:26:54.841Z,509.00
2023-05-12T04:27:54.900Z,504.00
2023-05-12T04:28:54.989Z,508.00
2023-05-12T04:29:55.055Z,502.00
2023-05-12T04:30:55.149Z,508.00
2023-05-12T04:31:55.272Z,503.00
2023-05-12T04:32:55.364Z,505.00
2023-05-12T04:33:55.387Z,505.00
2023-05-12T04:34:55.449Z,504.00
2023-05-12T04:35:55.526Z,503.00
2023-05-12T04:36:55.611Z,503.00
2023-05-12T04:37:55.692Z,506.00
2023-05-12T04:38:55.761Z,502.00
2023-05-12T04:39:55.843Z,507.00
2023-05-12T04:40:55.936Z,505.00
2023-05-12T04:41:56.030Z,501.00
2023-05-12T04:42:56.083Z,502.00
2023-05-12T04:44:56.169Z,510.00
2023-05-12T04:45:57.029Z,500.00
2023-05-12T04:46:56.257Z,500.00
2023-05-12T04:47:56.308Z,501.00
2023-05-12T04:48:56.299Z,503.00
2023-05-12T04:49:56.247Z,507.00
2023-05-12T04:50:56.265Z,513.00
2023-05-12T04:51:56.302Z,514.00
2023-05-12T04:52:56.320Z,512.00
2023-05-12T04:53:56.325Z,510.00
2023-05-12T04:54:56.335Z,506.00
2023-05-12T04:55:56.358Z,508.00
2023-05-12T04:56:56.383Z,508.00
2023-05-12T04:57:56.483Z,512.00
2023-05-12T04:58:56.586Z,514.00
2023-05-12T04:59:56.680Z,514.00
2023-05-12T05:00:56.722Z,512.00
2023-05-12T05:01:56.813Z,514.00
2023-05-12T05:02:56.999Z,515.00
2023-05-12T05:03:56.980Z,513.00
2023-05-12T05:04:57.056Z,509.00
2023-05-12T05:05:57.184Z,509.00
2023-05-12T05:06:57.209Z,511.00
2023-05-12T05:07:57.280Z,513.00
2023-05-12T05:08:57.358Z,512.00
2023-05-12T05:09:57.435Z,509.00
2023-05-12T05:10:57.528Z,512.00
2023-05-12T05:11:57.601Z,511.00
2023-05-12T05:12:57.677Z,512.00
2023-05-12T05:13:57.764Z,508.00
2023-05-12T05:14:57.855Z,511.00
2023-05-12T05:15:57.990Z,514.00
2023-05-12T05:16:58.024Z,513.00
2023-05-12T05:17:59.402Z,520.00
2023-05-12T05:18:58.558Z,523.00
2023-05-12T05:19:59.814Z,522.00
2023-05-12T05:20:59.273Z,519.00
2023-05-12T05:21:58.551Z,525.00
2023-05-12T05:22:58.616Z,522.00
2023-05-12T05:23:58.721Z,531.00
2023-05-12T05:24:58.783Z,535.00
2023-05-12T05:25:58.891Z,529.00
2023-05-12T05:26:58.975Z,530.00
2023-05-12T05:27:59.058Z,528.00
2023-05-12T05:28:59.115Z,533.00
2023-05-12T05:29:59.222Z,545.00
2023-05-12T05:30:59.330Z,558.00
2023-05-12T05:31:59.467Z,569.00
2023-05-12T05:32:59.497Z,597.00
2023-05-12T05:33:59.599Z,597.00
2023-05-12T05:34:59.636Z,559.00
2023-05-12T05:35:59.706Z,519.00
2023-05-12T05:36:59.840Z,506.00
2023-05-12T05:37:59.885Z,499.00
2023-05-12T05:39:00.037Z,502.00
2023-05-12T05:40:00.001Z,510.00
2023-05-12T05:41:00.041Z,503.00
2023-05-12T05:42:00.093Z,504.00
2023-05-12T05:43:00.163Z,508.00
2023-05-12T05:44:00.231Z,510.00
2023-05-12T05:45:00.278Z,504.00
2023-05-12T05:46:00.400Z,500.00
2023-05-12T05:47:00.399Z,506.00
2023-05-12T05:48:00.434Z,555.00
2023-05-12T05:49:00.349Z,598.00
2023-05-12T05:50:00.418Z,605.00
2023-05-12T05:51:00.458Z,628.00
2023-05-12T05:52:00.615Z,657.00
2023-05-12T05:53:00.613Z,663.00
2023-05-12T05:54:00.716Z,685.00
2023-05-12T05:55:00.847Z,688.00
2023-05-12T05:56:00.801Z,704.00
2023-05-12T05:57:00.930Z,730.00
2023-05-12T05:58:01.036Z,757.00
2023-05-12T05:59:01.050Z,810.00
2023-05-12T06:00:01.120Z,859.00
2023-05-12T06:01:01.199Z,895.00
2023-05-12T06:02:01.321Z,933.00
2023-05-12T06:03:01.446Z,964.00
2023-05-12T06:04:01.546Z,998.00
2023-05-12T06:05:01.471Z,1050.00
2023-05-12T06:06:01.440Z,1070.00
2023-05-12T06:07:01.447Z,1140.00
2023-05-12T06:08:01.523Z,1175.00
2023-05-12T06:09:01.532Z,1216.00
2023-05-12T06:10:01.530Z,1237.00
2023-05-12T06:11:01.567Z,1275.00
2023-05-12T06:12:01.596Z,1250.00
2023-05-12T06:13:01.582Z,1299.00
2023-05-12T06:14:01.616Z,1350.00
2023-05-12T06:15:01.721Z,1391.00
2023-05-12T06:16:01.687Z,1381.00
2023-05-12T06:17:01.773Z,1468.00
2023-05-12T06:18:01.760Z,1470.00
2023-05-12T06:19:01.798Z,1476.00
2023-05-12T06:20:01.745Z,1471.00
2023-05-12T06:21:01.752Z,1483.00
2023-05-12T06:22:01.764Z,1520.00
2023-05-12T06:23:01.746Z,1580.00
2023-05-12T06:24:01.767Z,1648.00
2023-05-12T06:25:01.780Z,1703.00
2023-05-12T06:26:01.767Z,1707.00
2023-05-12T06:27:01.841Z,1750.00
2023-05-12T06:28:02.058Z,1766.00
2023-05-12T06:29:01.984Z,1807.00
2023-05-12T06:30:02.130Z,1813.00
2023-05-12T06:31:02.122Z,1839.00
2023-05-12T06:32:02.276Z,1860.00
2023-05-12T06:33:02.321Z,1910.00
2023-05-12T06:34:02.307Z,1920.00
2023-05-12T06:35:02.354Z,1913.00
2023-05-12T06:36:02.419Z,1926.00
2023-05-12T06:37:02.429Z,1928.00
2023-05-12T06:38:02.432Z,1935.00
2023-05-12T06:39:02.436Z,1949.00
2023-05-12T06:40:02.446Z,1979.00
2023-05-12T06:41:02.463Z,2013.00
2023-05-12T06:42:02.468Z,2055.00
2023-05-12T06:43:02.466Z,2093.00
2023-05-12T06:44:02.512Z,2099.00
2023-05-12T06:45:02.487Z,2125.00
2023-05-12T06:46:02.498Z,2131.00
2023-05-12T06:47:02.514Z,2155.00
2023-05-12T06:48:02.568Z,2164.00
2023-05-12T06:49:02.549Z,2162.00
2023-05-12T06:50:02.612Z,2138.00
2023-05-12T06:51:02.663Z,2139.00
2023-05-12T06:52:02.733Z,2127.00
2023-05-12T06:53:02.785Z,2146.00
2023-05-12T06:54:02.815Z,2147.00
2023-05-12T06:55:02.858Z,2155.00
2023-05-12T06:56:02.919Z,1748.00
2023-05-12T06:57:02.971Z,1281.00
2023-05-12T06:58:03.098Z,930.00
2023-05-12T06:59:03.107Z,968.00
2023-05-12T07:00:03.132Z,968.00
2023-05-12T07:01:03.241Z,974.00
2023-05-12T07:02:03.197Z,1009.00
2023-05-12T07:03:03.245Z,1060.00
2023-05-12T07:04:03.192Z,1150.00
2023-05-12T07:05:03.181Z,1189.00
2023-05-12T07:06:03.203Z,1213.00
2023-05-12T07:07:03.172Z,1239.00
2023-05-12T07:08:03.249Z,1240.00
2023-05-12T07:09:03.186Z,1248.00
2023-05-12T07:10:03.256Z,1243.00
2023-05-12T07:11:03.201Z,1270.00
2023-05-12T07:12:03.204Z,1319.00
2023-05-12T07:13:03.345Z,1559.00
2023-05-12T07:14:03.224Z,1904.00
2023-05-12T07:15:03.224Z,1873.00
2023-05-12T07:16:03.265Z,2321.00
2023-05-12T07:17:03.236Z,2115.00
2023-05-12T07:18:03.299Z,1981.00
2023-05-12T07:19:03.294Z,1831.00
2023-05-12T07:20:03.313Z,1803.00
2023-05-12T07:21:03.328Z,1770.00
2023-05-12T07:22:03.344Z,1774.00
2023-05-12T07:23:03.386Z,1778.00
2023-05-12T07:24:03.344Z,1785.00
2023-05-12T07:25:03.375Z,1794.00
2023-05-12T07:26:03.360Z,1822.00
2023-05-12T07:27:03.473Z,1829.00
2023-05-12T07:28:03.528Z,1838.00
2023-05-12T07:29:03.336Z,1855.00
2023-05-12T07:30:03.393Z,1855.00
2023-05-12T07:31:03.395Z,1867.00
2023-05-12T07:32:03.393Z,1916.00
2023-05-12T07:33:03.446Z,1911.00
2023-05-12T07:34:03.382Z,1924.00
2023-05-12T07:35:03.348Z,1936.00
2023-05-12T07:36:03.497Z,1964.00
2023-05-12T07:37:03.370Z,2000.00
2023-05-12T07:38:03.366Z,2008.00
2023-05-12T07:39:03.500Z,2038.00
2023-05-12T07:40:03.337Z,1912.00
2023-05-12T07:41:03.396Z,1601.00
2023-05-12T07:42:03.397Z,1346.00
2023-05-12T07:43:03.436Z,1078.00
2023-05-12T07:44:03.417Z,834.00
2023-05-12T07:45:03.444Z,660.00
2023-05-12T07:46:03.416Z,618.00
2023-05-12T07:47:03.503Z,559.00
2023-05-12T07:48:03.491Z,499.00
2023-05-12T07:49:03.433Z,492.00
2023-05-12T07:50:03.462Z,492.00
2023-05-12T07:51:03.462Z,503.00
2023-05-12T07:52:03.493Z,510.00
2023-05-12T07:53:03.535Z,505.00
2023-05-12T07:54:03.581Z,500.00
2023-05-12T07:55:03.743Z,504.00
2023-05-12T07:56:03.728Z,501.00
2023-05-12T07:57:04.114Z,500.00
2023-05-12T07:58:03.904Z,491.00
2023-05-12T07:59:03.978Z,502.00
2023-05-12T08:00:04.059Z,500.00
2023-05-12T08:01:04.145Z,500.00
2023-05-12T08:02:04.158Z,500.00
2023-05-12T08:03:04.205Z,504.00
2023-05-12T08:04:04.346Z,509.00
2023-05-12T08:05:04.160Z,519.00
2023-05-12T08:06:04.247Z,515.00
2023-05-12T08:07:04.185Z,526.00
2023-05-12T08:08:04.182Z,504.00
2023-05-12T08:09:04.182Z,500.00
2023-05-12T08:10:04.273Z,509.00
2023-05-12T08:11:04.233Z,492.00
2023-05-12T08:12:04.240Z,468.00
2023-05-12T08:13:04.274Z,444.00
2023-05-12T08:14:04.283Z,456.00
2023-05-12T08:15:04.359Z,456.00
2023-05-12T08:16:04.307Z,483.00
2023-05-12T08:17:04.330Z,523.00
2023-05-12T08:18:04.351Z,552.00
2023-05-12T08:19:04.373Z,527.00
2023-05-12T08:20:04.314Z,504.00
2023-05-12T08:21:04.320Z,501.00
2023-05-12T08:22:04.335Z,506.00
2023-05-12T08:23:04.334Z,538.00
2023-05-12T08:24:04.338Z,549.00
2023-05-12T08:25:04.366Z,578.00
2023-05-12T08:26:04.357Z,580.00
2023-05-12T08:27:04.392Z,599.00
2023-05-12T08:28:04.373Z,573.00
2023-05-12T08:29:04.374Z,561.00
2023-05-12T08:30:04.391Z,575.00
2023-05-12T08:31:05.068Z,573.00
2023-05-12T08:32:04.429Z,567.00
2023-05-12T08:33:04.570Z,599.00
2023-05-12T08:34:10.356Z,647.00
2023-05-12T08:35:05.472Z,648.00
2023-05-12T08:36:04.457Z,653.00
2023-05-12T08:37:04.467Z,698.00
2023-05-12T08:38:04.546Z,792.00
2023-05-12T08:39:04.506Z,652.00
2023-05-12T08:40:04.516Z,680.00
2023-05-12T08:41:04.495Z,783.00
2023-05-12T08:42:04.505Z,945.00
2023-05-12T08:43:04.730Z,1212.00
2023-05-12T08:44:04.540Z,1232.00
2023-05-12T08:45:04.566Z,1306.00
2023-05-12T08:46:04.549Z,1345.00
2023-05-12T08:47:04.536Z,1399.00
2023-05-12T08:48:04.599Z,1422.00
2023-05-12T08:49:04.642Z,1452.00
2023-05-12T08:50:04.717Z,1479.00
2023-05-12T08:51:04.824Z,1539.00
2023-05-12T08:52:04.864Z,1554.00
2023-05-12T08:53:04.956Z,1591.00
2023-05-12T08:54:05.023Z,1619.00
2023-05-12T08:55:05.118Z,1647.00
2023-05-12T08:58:05.187Z,1668.00
2023-05-12T08:59:05.198Z,1675.00
2023-05-12T09:00:05.188Z,1684.00
2023-05-12T09:01:05.270Z,1702.00
2023-05-12T09:02:05.220Z,1735.00
2023-05-12T09:03:05.270Z,1750.00
2023-05-12T09:04:05.302Z,1772.00
2023-05-12T09:05:05.217Z,1775.00
2023-05-12T09:06:05.308Z,1763.00
2023-05-12T09:07:05.279Z,1791.00
2023-05-12T09:08:05.337Z,1793.00
2023-05-12T09:09:05.254Z,1797.00
2023-05-12T09:10:05.261Z,1808.00
2023-05-12T09:11:05.262Z,1822.00
2023-05-12T09:12:05.231Z,1847.00
2023-05-12T09:13:05.241Z,1794.00
2023-05-12T09:14:05.252Z,1803.00
2023-05-12T09:15:05.358Z,1827.00
2023-05-12T09:16:05.270Z,1864.00
2023-05-12T09:17:05.258Z,1796.00
2023-05-12T09:18:05.298Z,1810.00
2023-05-12T09:19:06.980Z,1835.00
2023-05-12T09:20:05.262Z,1870.00
2023-05-12T09:21:05.270Z,1926.00
2023-05-12T09:22:05.278Z,1938.00
2023-05-12T09:23:05.309Z,1939.00
2023-05-12T09:24:05.311Z,1959.00
2023-05-12T09:25:05.291Z,2002.00
2023-05-12T09:26:05.301Z,2025.00
2023-05-12T09:27:05.342Z,2043.00
2023-05-12T09:28:05.416Z,2065.00
2023-05-12T09:29:05.496Z,2068.00
2023-05-12T09:30:05.456Z,2075.00
2023-05-12T09:31:05.694Z,2108.00
2023-05-12T09:32:05.716Z,2119.00
2023-05-12T09:33:05.764Z,2125.00
2023-05-12T09:34:05.719Z,2150.00
2023-05-12T09:35:05.763Z,2157.00
2023-05-12T09:36:05.870Z,2178.00
2023-05-12T09:37:05.839Z,2192.00
2023-05-12T09:38:06.870Z,2192.00
2023-05-12T09:39:05.957Z,2199.00
2023-05-12T09:40:05.994Z,2232.00
2023-05-12T09:41:06.072Z,2239.00
2023-05-12T09:42:06.127Z,2148.00
2023-05-12T09:43:06.234Z,1606.00
2023-05-12T09:44:06.211Z,1167.00
2023-05-12T09:45:06.197Z,807.00
2023-05-12T09:46:06.266Z,645.00
2023-05-12T09:47:06.258Z,602.00
2023-05-12T09:48:06.430Z,591.00
2023-05-12T09:49:06.285Z,591.00
2023-05-12T09:50:06.260Z,566.00
2023-05-12T09:51:06.284Z,605.00
2023-05-12T09:52:06.315Z,655.00
2023-05-12T09:53:06.356Z,768.00
2023-05-12T09:54:07.820Z,839.00
2023-05-12T09:55:06.369Z,919.00
2023-05-12T09:56:06.369Z,997.00
2023-05-12T09:57:06.395Z,1057.00
2023-05-12T09:58:06.417Z,1221.00
2023-05-12T09:59:06.403Z,1306.00
2023-05-12T10:00:16.937Z,1378.00
2023-05-12T10:02:07.616Z,1384.00
2023-05-12T10:03:06.502Z,1413.00
2023-05-12T10:04:06.455Z,1472.00
2023-05-12T10:05:06.599Z,1596.00
2023-05-12T10:06:07.861Z,1394.00
2023-05-12T10:07:06.460Z,1455.00
2023-05-12T10:08:06.455Z,1564.00
2023-05-12T10:09:06.590Z,1702.00
2023-05-12T10:10:06.588Z,1866.00
2023-05-12T10:11:06.467Z,1858.00
2023-05-12T10:12:06.585Z,1798.00
2023-05-12T10:13:06.480Z,1746.00
2023-05-12T10:14:06.482Z,1693.00
2023-05-12T10:15:06.499Z,1674.00
2023-05-12T10:16:06.567Z,1737.00
2023-05-12T10:17:06.735Z,1757.00
2023-05-12T10:18:06.790Z,1769.00
2023-05-12T10:19:06.946Z,1793.00
2023-05-12T10:20:06.794Z,1837.00
2023-05-12T10:21:06.843Z,1899.00
2023-05-12T10:22:06.907Z,1945.00
2023-05-12T10:23:06.949Z,1978.00
2023-05-12T10:24:06.964Z,2019.00
2023-05-12T10:25:07.001Z,2132.00
2023-05-12T10:26:07.075Z,2126.00
2023-05-12T10:27:07.154Z,2147.00
2023-05-12T10:28:07.089Z,2203.00
2023-05-12T10:29:07.095Z,2206.00
2023-05-12T10:30:07.086Z,2217.00
2023-05-12T10:31:07.134Z,2208.00
2023-05-12T10:32:07.076Z,2210.00
2023-05-12T10:33:07.212Z,2235.00
2023-05-12T10:34:07.129Z,2212.00
2023-05-12T10:35:07.111Z,2243.00
2023-05-12T10:36:07.077Z,2315.00
2023-05-12T10:37:07.091Z,2219.00
2023-05-12T10:38:07.189Z,2277.00
2023-05-12T10:39:07.086Z,2424.00
2023-05-12T10:40:07.067Z,2746.00
2023-05-12T10:41:07.086Z,3383.00
2023-05-12T10:42:07.099Z,2248.00
2023-05-12T10:43:07.078Z,2409.00
2023-05-12T10:44:07.092Z,2252.00
2023-05-12T10:45:07.061Z,2428.00
2023-05-12T10:46:07.162Z,2752.00
2023-05-12T10:47:07.100Z,3209.00
2023-05-12T10:48:07.143Z,3804.00
2023-05-12T10:49:07.061Z,3863.00
2023-05-12T10:50:07.020Z,3856.00
2023-05-12T10:51:07.065Z,3856.00
2023-05-12T10:52:07.037Z,3831.00
2023-05-12T10:53:08.727Z,3773.00
2023-05-12T10:54:07.019Z,3767.00
2023-05-12T10:55:07.048Z,3736.00
2023-05-12T10:56:07.122Z,3666.00
2023-05-12T10:57:07.272Z,3644.00
2023-05-12T10:58:07.327Z,3610.00
2023-05-12T10:59:07.236Z,3488.00
2023-05-12T11:00:07.447Z,3403.00
2023-05-12T11:01:07.336Z,3301.00
2023-05-12T11:02:08.058Z,3251.00
2023-05-12T11:04:07.101Z,3129.00
2023-05-12T11:05:07.354Z,3056.00
2023-05-12T11:06:07.234Z,2966.00
2023-05-12T11:07:07.929Z,2901.00
2023-05-12T11:08:07.356Z,2905.00
2023-05-12T11:09:07.130Z,2820.00
2023-05-12T11:10:08.015Z,2741.00
2023-05-12T11:11:07.044Z,2658.00
2023-05-12T11:12:06.944Z,2595.00
2023-05-12T11:13:06.892Z,2539.00
2023-05-12T11:14:06.914Z,2484.00
2023-05-12T11:15:07.122Z,2454.00
2023-05-12T11:16:06.979Z,2382.00
2023-05-12T11:17:06.867Z,2303.00
2023-05-12T11:18:06.939Z,2206.00
2023-05-12T11:19:06.979Z,2163.00
2023-05-12T11:20:06.842Z,2141.00
2023-05-12T11:21:06.848Z,2136.00
2023-05-12T11:22:06.866Z,2106.00
2023-05-12T11:23:06.923Z,2095.00
2023-05-12T11:24:06.852Z,2079.00
2023-05-12T11:25:06.912Z,2075.00
2023-05-12T11:26:06.841Z,2072.00
2023-05-12T11:27:06.823Z,2064.00
2023-05-12T11:28:06.819Z,2005.00
2023-05-12T11:29:06.861Z,2018.00
2023-05-12T11:30:06.836Z,2025.00
2023-05-12T11:31:06.810Z,2039.00
2023-05-12T11:32:06.926Z,2045.00
2023-05-12T11:33:06.850Z,2099.00
2023-05-12T11:34:11.800Z,2139.00
2023-05-12T11:35:07.858Z,2142.00
2023-05-12T11:36:06.840Z,2153.00
2023-05-12T11:37:06.836Z,2180.00
2023-05-12T11:38:06.828Z,2282.00
2023-05-12T11:39:06.926Z,2365.00
2023-05-12T11:40:06.834Z,2362.00
2023-05-12T11:41:06.837Z,2385.00
2023-05-12T11:42:12.965Z,2437.00
2023-05-12T11:43:07.841Z,2437.00
2023-05-12T11:44:06.832Z,2441.00
2023-05-12T11:45:06.834Z,2452.00
2023-05-12T11:46:06.835Z,2475.00
2023-05-12T11:47:06.818Z,2507.00
2023-05-12T11:48:06.929Z,2512.00
2023-05-12T11:49:06.837Z,2514.00
2023-05-12T11:50:06.868Z,2502.00
2023-05-12T11:51:06.834Z,2525.00
2023-05-12T11:52:06.804Z,2519.00
2023-05-12T11:53:06.814Z,2515.00
2023-05-12T11:54:06.820Z,2499.00
2023-05-12T11:55:06.852Z,2478.00
2023-05-12T11:56:06.800Z,2522.00
2023-05-12T11:57:06.772Z,2519.00
2023-05-12T11:58:06.776Z,2545.00
2023-05-12T11:59:06.825Z,2550.00
2023-05-12T12:00:06.778Z,2543.00
2023-05-12T12:01:06.764Z,2542.00
2023-05-12T12:02:06.743Z,2611.00
2023-05-12T12:03:06.805Z,2601.00
2023-05-12T12:04:06.830Z,2576.00
2023-05-12T12:05:09.204Z,2639.00
2023-05-12T12:06:06.947Z,2645.00
2023-05-12T12:07:06.884Z,2661.00
2023-05-12T12:08:06.880Z,2688.00
2023-05-12T12:09:06.889Z,2719.00
2023-05-12T12:10:06.880Z,2736.00
2023-05-12T12:11:06.916Z,2748.00
2023-05-12T12:12:06.872Z,2769.00
2023-05-12T12:13:06.865Z,2799.00
2023-05-12T12:14:06.863Z,2801.00
2023-05-12T12:15:06.852Z,2830.00
2023-05-12T12:16:06.895Z,2843.00
2023-05-12T12:17:06.873Z,2849.00
2023-05-12T12:18:06.892Z,2871.00
2023-05-12T12:19:06.904Z,2893.00
2023-05-12T12:20:06.887Z,2910.00
2023-05-12T12:21:06.903Z,2881.00
2023-05-12T12:22:06.937Z,2899.00
2023-05-12T12:23:06.985Z,2903.00
2023-05-12T12:24:07.014Z,2902.00
2023-05-12T12:25:07.081Z,2902.00